createdAt,value
2019-05-25T00:02:16.315Z,6.63
2019-05-25T00:04:46.783Z,7.17
2019-05-25T00:07:17.129Z,6.40
2019-05-25T00:09:48.468Z,7.10
2019-05-25T00:12:20.492Z,7.85
2019-05-25T00:14:50.547Z,7.43
2019-05-25T00:17:20.782Z,7.73
2019-05-25T00:19:50.966Z,7.67
2019-05-25T00:22:21.108Z,8.13
2019-05-25T00:24:51.227Z,7.97
2019-05-25T00:27:21.557Z,8.00
2019-05-25T00:29:51.770Z,8.10
2019-05-25T00:32:22.286Z,8.57
2019-05-25T00:34:52.711Z,7.80
2019-05-25T00:37:23.159Z,8.27
2019-05-25T00:39:53.859Z,7.73
2019-05-25T00:42:23.958Z,7.47
2019-05-25T00:44:54.290Z,8.33
2019-05-25T00:47:24.752Z,8.37
2019-05-25T00:49:54.976Z,8.37
2019-05-25T00:52:25.137Z,8.93
2019-05-25T00:54:55.567Z,8.07
2019-05-25T00:57:25.937Z,8.67
2019-05-25T00:59:56.059Z,8.53
2019-05-25T01:02:27.123Z,8.07
2019-05-25T01:04:57.507Z,7.80
2019-05-25T01:07:27.752Z,8.43
2019-05-25T01:09:57.816Z,7.67
2019-05-25T01:12:29.167Z,8.10
2019-05-25T01:14:59.495Z,8.13
2019-05-25T01:17:29.843Z,8.27
2019-05-25T01:20:00.017Z,8.70
2019-05-25T01:22:30.156Z,8.97
2019-05-25T01:25:00.243Z,8.97
2019-05-25T01:27:30.915Z,9.20
2019-05-25T01:30:01.146Z,8.57
2019-05-25T01:32:31.291Z,9.30
2019-05-25T01:35:01.424Z,9.20
2019-05-25T01:37:31.682Z,8.63
2019-05-25T01:40:01.742Z,9.10
2019-05-25T01:42:31.906Z,9.17
2019-05-25T01:45:02.279Z,9.57
2019-05-25T01:47:33.114Z,9.73
2019-05-25T01:50:03.544Z,8.80
2019-05-25T01:52:33.889Z,9.13
2019-05-25T01:55:03.983Z,9.17
2019-05-25T01:57:35.370Z,9.23
2019-05-25T02:00:06.406Z,8.67
2019-05-25T02:02:36.825Z,9.80
2019-05-25T02:05:07.502Z,9.73
2019-05-25T02:07:37.797Z,11.03
2019-05-25T02:10:07.864Z,9.63
2019-05-25T02:12:37.925Z,9.73
2019-05-25T02:15:10.300Z,9.80
2019-05-25T02:17:41.096Z,9.20
2019-05-25T02:20:11.511Z,9.27
2019-05-25T02:22:41.886Z,9.53
2019-05-25T02:25:18.154Z,9.83
2019-05-25T02:27:44.066Z,10.63
2019-05-25T02:30:15.161Z,10.53
2019-05-25T02:32:45.392Z,10.87
2019-05-25T02:35:27.310Z,10.00
2019-05-25T02:37:58.118Z,10.67
2019-05-25T02:40:28.949Z,10.43
2019-05-25T02:42:59.567Z,11.03
2019-05-25T02:45:29.615Z,10.70
2019-05-25T02:48:00.801Z,11.17
2019-05-25T02:50:30.913Z,10.37
2019-05-25T02:53:01.079Z,11.37
2019-05-25T02:55:34.796Z,11.63
2019-05-25T02:58:03.219Z,11.60
2019-05-25T03:00:34.239Z,11.53
2019-05-25T03:03:05.708Z,11.30
2019-05-25T03:05:35.806Z,11.67
2019-05-25T03:08:06.225Z,10.73
2019-05-25T03:10:37.836Z,9.47
2019-05-25T03:13:08.253Z,9.63
2019-05-25T03:15:38.403Z,9.10
2019-05-25T03:18:09.934Z,10.30
2019-05-25T03:20:40.049Z,9.67
2019-05-25T03:23:10.695Z,10.17
2019-05-25T03:25:49.662Z,9.77
2019-05-25T03:28:13.123Z,10.23
2019-05-25T03:30:43.172Z,9.77
2019-05-25T03:33:14.529Z,10.63
2019-05-25T03:35:44.928Z,10.43
2019-05-25T03:38:15.760Z,10.67
2019-05-25T03:40:46.289Z,11.40
2019-05-25T03:43:17.362Z,10.50
2019-05-25T03:45:47.515Z,11.00
2019-05-25T03:48:17.632Z,10.67
2019-05-25T03:50:47.741Z,10.63
2019-05-25T03:53:18.180Z,9.93
2019-05-25T03:56:02.815Z,10.53
2019-05-25T03:58:23.416Z,11.43
2019-05-25T04:00:54.608Z,10.70
2019-05-25T04:03:24.723Z,10.53
2019-05-25T04:05:54.915Z,11.20
2019-05-25T04:08:25.461Z,11.17
2019-05-25T04:10:55.786Z,11.83
2019-05-25T04:13:26.866Z,10.47
2019-05-25T04:15:56.983Z,10.70
2019-05-25T04:18:29.555Z,10.73
2019-05-25T04:20:59.689Z,11.70
2019-05-25T04:23:29.921Z,11.00
2019-05-25T04:25:59.979Z,10.83
2019-05-25T04:28:30.352Z,10.73
2019-05-25T04:31:00.548Z,10.97
2019-05-25T04:33:30.978Z,12.00
2019-05-25T04:36:01.134Z,11.10
2019-05-25T04:38:31.254Z,11.40
2019-05-25T04:41:01.472Z,11.23
2019-05-25T04:43:31.967Z,11.93
2019-05-25T04:46:02.045Z,10.23
2019-05-25T04:48:32.479Z,11.37
2019-05-25T04:51:02.536Z,10.93
2019-05-25T04:53:32.963Z,11.00
2019-05-25T04:56:03.091Z,10.93
2019-05-25T04:58:33.261Z,11.87
2019-05-25T05:01:03.661Z,11.93
2019-05-25T05:03:34.146Z,11.03
2019-05-25T05:06:04.295Z,11.07
2019-05-25T05:08:35.712Z,11.73
2019-05-25T05:11:07.317Z,11.40
2019-05-25T05:13:37.869Z,11.13
2019-05-25T05:16:08.226Z,11.87
2019-05-25T05:18:38.603Z,12.67
2019-05-25T05:21:08.685Z,11.70
2019-05-25T05:23:39.216Z,11.60
2019-05-25T05:26:09.352Z,11.90
2019-05-25T05:28:39.468Z,10.80
2019-05-25T05:31:22.808Z,11.57
2019-05-25T05:33:41.509Z,11.00
2019-05-25T05:36:13.118Z,10.43
2019-05-25T05:38:43.852Z,11.20
2019-05-25T05:41:16.654Z,12.00
2019-05-25T05:43:48.964Z,12.13
2019-05-25T05:46:21.319Z,11.60
2019-05-25T05:48:52.359Z,11.53
2019-05-25T05:51:22.548Z,11.07
2019-05-25T05:53:56.861Z,11.70
2019-05-25T05:56:26.913Z,12.33
2019-05-25T05:58:57.352Z,12.20
2019-05-25T06:01:27.497Z,11.93
2019-05-25T06:03:58.085Z,11.67
2019-05-25T06:06:28.231Z,11.70
2019-05-25T06:08:58.363Z,11.83
2019-05-25T06:11:28.747Z,12.00
2019-05-25T06:13:59.249Z,12.17
2019-05-25T06:16:29.372Z,11.57
2019-05-25T06:18:59.618Z,11.83
2019-05-25T06:21:29.754Z,11.17
2019-05-25T06:23:59.835Z,12.30
2019-05-25T06:26:29.984Z,11.60
2019-05-25T06:29:00.758Z,12.20
2019-05-25T06:31:30.855Z,11.03
2019-05-25T06:34:01.287Z,10.43
2019-05-25T06:36:31.373Z,10.50
2019-05-25T06:39:01.557Z,10.53
2019-05-25T06:41:32.003Z,10.57
2019-05-25T06:44:02.671Z,10.10
2019-05-25T06:46:32.838Z,10.17
2019-05-25T06:49:02.958Z,10.67
2019-05-25T06:51:33.029Z,10.43
2019-05-25T06:54:03.231Z,9.90
2019-05-25T06:56:33.404Z,10.30
2019-05-25T06:59:03.736Z,10.70
2019-05-25T07:01:34.116Z,10.30
2019-05-25T07:04:04.263Z,11.97
2019-05-25T07:06:34.430Z,11.30
2019-05-25T07:09:07.484Z,10.30
2019-05-25T07:11:37.666Z,9.63
2019-05-25T07:14:08.361Z,9.80
2019-05-25T07:16:38.506Z,10.10
2019-05-25T07:19:09.026Z,9.03
2019-05-25T07:21:39.188Z,9.77
2019-05-25T07:24:09.718Z,10.00
2019-05-25T07:26:39.857Z,10.20
2019-05-25T07:29:10.181Z,9.37
2019-05-25T07:31:40.571Z,10.70
2019-05-25T07:34:10.766Z,9.90
2019-05-25T07:36:41.181Z,9.57
2019-05-25T07:39:11.362Z,9.50
2019-05-25T07:41:41.487Z,9.63
2019-05-25T07:44:11.579Z,9.80
2019-05-25T07:46:41.802Z,9.58
2019-05-25T07:49:12.078Z,9.68
2019-05-25T07:51:42.163Z,9.98
2019-05-25T07:54:12.438Z,9.93
2019-05-25T07:56:42.556Z,10.13
2019-05-25T07:59:12.690Z,10.25
2019-05-25T08:01:42.764Z,9.73
2019-05-25T08:04:12.965Z,8.88
2019-05-25T08:06:43.429Z,9.23
2019-05-25T08:09:13.699Z,9.33
2019-05-25T08:11:44.256Z,8.28
2019-05-25T08:14:14.800Z,7.80
2019-05-25T08:16:45.023Z,7.90
2019-05-25T08:19:15.444Z,7.92
2019-05-25T08:21:45.657Z,7.37
2019-05-25T08:24:17.088Z,7.87
2019-05-25T08:26:47.292Z,6.12
2019-05-25T08:29:17.494Z,6.83
2019-05-25T08:31:47.658Z,7.85
2019-05-25T08:34:17.955Z,7.42
2019-05-25T08:36:48.141Z,7.42
2019-05-25T08:39:19.230Z,7.03
2019-05-25T08:41:49.405Z,7.12
2019-05-25T08:44:19.633Z,7.00
2019-05-25T08:46:50.116Z,7.87
2019-05-25T08:49:20.413Z,7.97
2019-05-25T08:51:50.560Z,8.63
2019-05-25T08:54:20.824Z,7.92
2019-05-25T08:56:50.911Z,8.20
2019-05-25T08:59:22.244Z,8.65
2019-05-25T09:01:53.400Z,9.73
2019-05-25T09:04:25.705Z,9.13
2019-05-25T09:06:55.969Z,10.30
2019-05-25T09:09:26.243Z,9.73
2019-05-25T09:11:56.683Z,8.73
2019-05-25T09:14:27.709Z,8.85
2019-05-25T09:16:58.207Z,8.13
2019-05-25T09:19:28.780Z,7.97
2019-05-25T09:22:02.569Z,9.85
2019-05-25T09:24:30.837Z,8.83
2019-05-25T09:27:01.138Z,9.40
2019-05-25T09:29:31.372Z,9.80
2019-05-25T09:32:01.533Z,10.68
2019-05-25T09:34:32.044Z,8.83
2019-05-25T09:37:02.275Z,9.73
2019-05-25T09:39:32.536Z,9.58
2019-05-25T09:42:02.748Z,9.58
2019-05-25T09:44:33.310Z,10.30
2019-05-25T09:47:03.558Z,10.38
2019-05-25T09:49:34.022Z,10.48
2019-05-25T09:52:04.205Z,11.48
2019-05-25T09:54:34.448Z,11.85
2019-05-25T09:57:05.136Z,11.93
2019-05-25T09:59:35.311Z,11.15
2019-05-25T10:02:05.590Z,12.50
2019-05-25T10:04:35.872Z,12.58
2019-05-25T10:07:06.116Z,12.58
2019-05-25T10:09:39.879Z,11.48
2019-05-25T10:12:09.380Z,11.83
2019-05-25T10:14:39.554Z,12.75
2019-05-25T10:17:09.892Z,11.15
2019-05-25T10:19:40.247Z,10.32
2019-05-25T10:22:10.493Z,9.90
2019-05-25T10:24:40.731Z,9.55
2019-05-25T10:27:10.947Z,9.20
2019-05-25T10:29:41.547Z,8.43
2019-05-25T10:32:11.711Z,10.23
2019-05-25T10:34:42.228Z,9.80
2019-05-25T10:37:12.719Z,10.07
2019-05-25T10:39:42.995Z,9.75
2019-05-25T10:42:13.408Z,10.28
2019-05-25T10:44:43.590Z,9.85
2019-05-25T10:47:13.700Z,9.23
2019-05-25T10:49:43.914Z,8.00
2019-05-25T10:52:14.408Z,8.60
2019-05-25T10:54:44.612Z,7.83
2019-05-25T10:57:14.865Z,7.45
2019-05-25T10:59:52.889Z,7.78
2019-05-25T11:02:17.090Z,9.18
2019-05-25T11:04:47.280Z,9.03
2019-05-25T11:07:17.475Z,8.88
2019-05-25T11:09:47.913Z,7.67
2019-05-25T11:12:18.053Z,8.95
2019-05-25T11:14:48.173Z,8.43
2019-05-25T11:17:18.264Z,10.28
2019-05-25T11:19:48.491Z,10.32
2019-05-25T11:22:18.618Z,9.68
2019-05-25T11:24:48.851Z,10.20
2019-05-25T11:27:19.031Z,9.33
2019-05-25T11:29:49.262Z,9.53
2019-05-25T11:32:19.419Z,10.13
2019-05-25T11:34:49.502Z,9.83
2019-05-25T11:37:20.286Z,9.20
2019-05-25T11:39:50.797Z,9.55
2019-05-25T11:42:21.053Z,8.08
2019-05-25T11:44:51.291Z,10.10
2019-05-25T11:47:21.743Z,9.50
2019-05-25T11:49:53.039Z,8.78
2019-05-25T11:52:23.207Z,10.25
2019-05-25T11:54:53.651Z,9.25
2019-05-25T11:57:23.767Z,9.68
2019-05-25T11:59:54.326Z,8.35
2019-05-25T12:02:24.578Z,8.05
2019-05-25T12:04:54.793Z,9.05
2019-05-25T12:07:25.481Z,8.18
2019-05-25T12:09:55.867Z,7.83
2019-05-25T12:12:26.050Z,9.03
2019-05-25T12:14:56.310Z,8.38
2019-05-25T12:17:26.416Z,8.50
2019-05-25T12:19:56.937Z,9.35
2019-05-25T12:22:28.159Z,8.13
2019-05-25T12:24:58.325Z,8.88
2019-05-25T12:27:28.509Z,8.00
2019-05-25T12:29:59.789Z,7.60
2019-05-25T12:32:29.984Z,7.45
2019-05-25T12:35:00.431Z,6.97
2019-05-25T12:37:30.594Z,7.58
2019-05-25T12:40:01.113Z,7.60
2019-05-25T12:42:31.299Z,7.47
2019-05-25T12:45:01.494Z,6.53
2019-05-25T12:47:31.699Z,6.25
2019-05-25T12:50:01.967Z,5.65
2019-05-25T12:52:32.186Z,5.05
2019-05-25T12:55:02.468Z,4.55
2019-05-25T12:57:32.708Z,4.83
2019-05-25T13:00:15.048Z,5.75
2019-05-25T13:02:35.614Z,4.70
2019-05-25T13:05:06.310Z,4.58
2019-05-25T13:07:36.805Z,4.25
2019-05-25T13:10:07.405Z,3.37
2019-05-25T13:12:37.760Z,2.52
2019-05-25T13:15:08.657Z,3.67
2019-05-25T13:17:39.093Z,3.87
2019-05-25T13:20:09.992Z,3.52
2019-05-25T13:22:40.226Z,3.95
2019-05-25T13:25:10.736Z,2.90
2019-05-25T13:27:41.214Z,3.83
2019-05-25T13:30:11.919Z,3.40
2019-05-25T13:32:42.098Z,3.00
2019-05-25T13:35:12.289Z,3.02
2019-05-25T13:37:42.750Z,2.95
2019-05-25T13:40:13.324Z,3.58
2019-05-25T13:42:43.456Z,3.10
2019-05-25T13:45:14.005Z,3.10
2019-05-25T13:47:44.148Z,2.98
2019-05-25T13:50:14.882Z,2.83
2019-05-25T13:52:45.116Z,3.00
2019-05-25T13:55:15.467Z,3.30
2019-05-25T13:57:45.806Z,3.33
2019-05-25T14:00:16.575Z,3.67
2019-05-25T14:02:46.961Z,3.33
2019-05-25T14:05:17.539Z,3.00
2019-05-25T14:07:48.319Z,3.95
2019-05-25T14:10:18.848Z,3.80
2019-05-25T14:12:49.971Z,3.95
2019-05-25T14:15:20.180Z,3.75
2019-05-25T14:17:50.409Z,3.20
2019-05-25T14:20:21.813Z,3.80
2019-05-25T14:22:54.908Z,3.27
2019-05-25T14:25:25.114Z,3.65
2019-05-25T14:27:55.672Z,3.30
2019-05-25T14:30:25.982Z,3.58
2019-05-25T14:32:56.330Z,2.72
2019-05-25T14:35:26.450Z,3.72
2019-05-25T14:37:57.201Z,4.45
2019-05-25T14:40:27.466Z,3.40
2019-05-25T14:42:57.508Z,3.60
2019-05-25T14:45:27.626Z,3.33
2019-05-25T14:47:58.219Z,3.20
2019-05-25T14:50:28.466Z,2.95
2019-05-25T14:52:58.597Z,3.37
2019-05-25T14:55:29.131Z,4.00
2019-05-25T14:57:59.466Z,3.55
2019-05-25T15:00:30.274Z,3.00
2019-05-25T15:03:00.423Z,3.22
2019-05-25T15:05:30.610Z,3.40
2019-05-25T15:08:00.757Z,3.45
2019-05-25T15:10:31.069Z,3.05
2019-05-25T15:13:01.124Z,2.45
2019-05-25T15:15:31.322Z,2.98
2019-05-25T15:18:01.533Z,3.58
2019-05-25T15:20:32.216Z,4.12
2019-05-25T15:23:02.290Z,4.20
2019-05-25T15:25:32.412Z,4.75
2019-05-25T15:28:02.710Z,4.75
2019-05-25T15:30:32.811Z,6.03
2019-05-25T15:33:04.108Z,8.33
2019-05-25T15:35:34.606Z,7.28
2019-05-25T15:38:04.874Z,6.85
2019-05-25T15:40:38.456Z,5.60
2019-05-25T15:43:07.244Z,6.00
2019-05-25T15:45:37.549Z,5.62
2019-05-25T15:48:07.807Z,5.78
2019-05-25T15:50:38.697Z,6.53
2019-05-25T15:53:08.922Z,5.83
2019-05-25T15:55:39.130Z,7.25
2019-05-25T15:58:09.871Z,6.30
2019-05-25T16:00:48.139Z,6.83
2019-05-25T16:03:20.419Z,6.00
2019-05-25T16:05:50.814Z,5.72
2019-05-25T16:08:22.338Z,5.10
2019-05-25T16:10:53.159Z,5.55
2019-05-25T16:13:23.325Z,5.47
2019-05-25T16:15:53.521Z,6.60
2019-05-25T16:18:23.680Z,6.05
2019-05-25T16:20:54.090Z,6.25
2019-05-25T16:23:24.274Z,6.08
2019-05-25T16:25:54.851Z,6.15
2019-05-25T16:28:24.945Z,6.08
2019-05-25T16:30:55.061Z,5.95
2019-05-25T16:33:26.203Z,6.85
2019-05-25T16:35:58.011Z,6.67
2019-05-25T16:38:28.289Z,5.55
2019-05-25T16:40:58.834Z,5.85
2019-05-25T16:43:29.385Z,5.83
2019-05-25T16:45:59.675Z,5.53
2019-05-25T16:48:29.739Z,6.30
2019-05-25T16:51:00.252Z,6.40
2019-05-25T16:53:30.434Z,7.05
2019-05-25T16:56:00.643Z,5.78
2019-05-25T16:58:30.834Z,5.78
2019-05-25T17:01:01.506Z,6.58
2019-05-25T17:03:31.689Z,6.62
2019-05-25T17:06:01.840Z,6.22
2019-05-25T17:08:32.301Z,6.20
2019-05-25T17:11:02.404Z,5.87
2019-05-25T17:13:32.934Z,5.53
2019-05-25T17:16:03.588Z,5.65
2019-05-25T17:18:33.807Z,6.70
2019-05-25T17:21:04.286Z,7.78
2019-05-25T17:23:34.711Z,8.30
2019-05-25T17:26:05.309Z,7.90
2019-05-25T17:28:35.439Z,7.80
2019-05-25T17:31:05.588Z,7.58
2019-05-25T17:33:45.428Z,7.37
2019-05-25T17:36:07.536Z,8.50
2019-05-25T17:38:37.687Z,8.68
2019-05-25T17:41:08.124Z,8.63
2019-05-25T17:43:38.684Z,10.03
2019-05-25T17:46:09.240Z,9.03
2019-05-25T17:48:39.526Z,7.62
2019-05-25T17:51:09.768Z,9.08
2019-05-25T17:53:40.316Z,8.53
2019-05-25T17:56:10.831Z,9.03
2019-05-25T17:58:41.277Z,8.25
2019-05-25T18:01:11.501Z,7.95
2019-05-25T18:03:41.737Z,8.18
2019-05-25T18:06:11.943Z,7.65
2019-05-25T18:08:42.441Z,7.40
2019-05-25T18:11:12.653Z,7.70
2019-05-25T18:13:42.803Z,7.33
2019-05-25T18:16:13.318Z,7.25
2019-05-25T18:18:43.760Z,8.05
2019-05-25T18:21:14.129Z,8.33
2019-05-25T18:23:44.284Z,7.53
2019-05-25T18:26:14.690Z,7.85
2019-05-25T18:28:44.903Z,7.78
2019-05-25T18:31:15.147Z,9.25
2019-05-25T18:33:45.237Z,8.20
2019-05-25T18:36:15.433Z,8.65
2019-05-25T18:38:45.555Z,10.95
2019-05-25T18:41:16.009Z,9.03
2019-05-25T18:43:46.096Z,7.83
2019-05-25T18:46:16.380Z,7.80
2019-05-25T18:48:46.606Z,7.35
2019-05-25T18:51:16.875Z,7.05
2019-05-25T18:53:47.002Z,6.85
2019-05-25T18:56:17.561Z,6.65
2019-05-25T18:58:48.043Z,6.78
2019-05-25T19:01:18.418Z,9.13
2019-05-25T19:03:48.984Z,8.15
2019-05-25T19:06:19.539Z,7.47
2019-05-25T19:08:49.736Z,6.67
2019-05-25T19:11:19.963Z,8.50
2019-05-25T19:13:50.400Z,6.33
2019-05-25T19:16:20.919Z,6.80
2019-05-25T19:18:51.176Z,6.67
2019-05-25T19:21:21.785Z,6.20
2019-05-25T19:23:51.927Z,6.97
2019-05-25T19:26:22.101Z,7.37
2019-05-25T19:28:52.261Z,8.45
2019-05-25T19:31:22.810Z,8.28
2019-05-25T19:33:52.892Z,7.10
2019-05-25T19:36:23.550Z,6.60
2019-05-25T19:38:53.629Z,8.08
2019-05-25T19:41:23.838Z,6.83
2019-05-25T19:43:54.303Z,7.20
2019-05-25T19:46:24.567Z,9.08
2019-05-25T19:48:54.976Z,8.45
2019-05-25T19:51:26.286Z,7.75
2019-05-25T19:53:56.740Z,7.83
2019-05-25T19:56:27.016Z,9.23
2019-05-25T19:58:57.498Z,8.35
2019-05-25T20:01:27.763Z,8.85
2019-05-25T20:03:57.888Z,7.53
2019-05-25T20:06:27.993Z,7.92
2019-05-25T20:08:59.268Z,7.97
2019-05-25T20:11:29.501Z,8.13
2019-05-25T20:13:59.659Z,8.23
2019-05-25T20:16:29.775Z,7.45
2019-05-25T20:18:59.991Z,7.90
2019-05-25T20:21:30.325Z,8.93
2019-05-25T20:24:00.823Z,7.97
2019-05-25T20:26:31.057Z,8.90
2019-05-25T20:29:01.352Z,8.03
2019-05-25T20:31:31.833Z,8.15
2019-05-25T20:34:02.008Z,7.62
2019-05-25T20:36:32.604Z,9.28
2019-05-25T20:39:02.979Z,8.45
2019-05-25T20:41:33.510Z,8.88
2019-05-25T20:44:03.740Z,8.88
2019-05-25T20:46:34.038Z,8.55
2019-05-25T20:49:04.564Z,9.23
2019-05-25T20:51:34.994Z,8.43
2019-05-25T20:54:05.715Z,7.65
2019-05-25T20:56:36.277Z,9.18
2019-05-25T20:59:06.493Z,9.33
2019-05-25T21:01:36.731Z,9.00
2019-05-25T21:04:10.351Z,8.95
2019-05-25T21:06:40.477Z,8.70
2019-05-25T21:09:10.911Z,7.97
2019-05-25T21:11:41.085Z,8.73
2019-05-25T21:14:11.904Z,9.97
2019-05-25T21:16:42.072Z,9.98
2019-05-25T21:19:12.129Z,8.70
2019-05-25T21:21:42.274Z,9.87
2019-05-25T21:24:12.784Z,9.65
2019-05-25T21:26:43.322Z,9.85
2019-05-25T21:29:13.883Z,9.65
2019-05-25T21:31:44.985Z,11.70
2019-05-25T21:34:15.128Z,14.55
2019-05-25T21:36:45.684Z,15.18
2019-05-25T21:39:15.776Z,15.75
2019-05-25T21:41:46.282Z,16.02
2019-05-25T21:44:16.742Z,15.45
2019-05-25T21:46:46.938Z,17.02
2019-05-25T21:49:17.146Z,16.60
2019-05-25T21:51:47.573Z,15.88
2019-05-25T21:54:17.630Z,17.57
2019-05-25T21:56:47.849Z,16.23
2019-05-25T21:59:18.065Z,18.10
2019-05-25T22:01:48.198Z,16.87
2019-05-25T22:04:18.724Z,17.67
2019-05-25T22:06:48.834Z,20.45
2019-05-25T22:09:19.202Z,19.95
2019-05-25T22:11:49.686Z,22.52
2019-05-25T22:14:20.132Z,22.13
2019-05-25T22:16:50.658Z,22.13
2019-05-25T22:19:21.070Z,22.35
2019-05-25T22:21:51.341Z,22.48
2019-05-25T22:24:21.476Z,22.80
2019-05-25T22:26:51.855Z,23.12
2019-05-25T22:29:21.963Z,24.75
2019-05-25T22:31:52.436Z,23.40
2019-05-25T22:34:22.871Z,23.27
2019-05-25T22:36:52.995Z,25.17
2019-05-25T22:39:23.253Z,24.45
2019-05-25T22:41:53.627Z,25.27
2019-05-25T22:44:23.949Z,27.67
2019-05-25T22:46:54.258Z,26.02
2019-05-25T22:49:24.398Z,26.42
2019-05-25T22:51:54.677Z,25.37
2019-05-25T22:54:25.297Z,24.27
2019-05-25T22:56:55.825Z,26.07
2019-05-25T22:59:26.402Z,27.13
2019-05-25T23:01:56.915Z,26.70
2019-05-25T23:04:28.194Z,27.25
2019-05-25T23:06:58.718Z,26.48
2019-05-25T23:09:29.365Z,25.77
2019-05-25T23:12:00.643Z,26.25
2019-05-25T23:14:30.809Z,27.40
2019-05-25T23:17:01.115Z,27.60
2019-05-25T23:19:32.230Z,25.95
2019-05-25T23:22:02.442Z,25.82
2019-05-25T23:24:32.682Z,27.15
2019-05-25T23:27:02.807Z,27.58
2019-05-25T23:29:32.906Z,27.27
2019-05-25T23:32:03.367Z,28.38
2019-05-25T23:34:33.487Z,28.20
2019-05-25T23:37:14.350Z,28.50
2019-05-25T23:39:35.769Z,31.27
2019-05-25T23:42:06.213Z,30.52
2019-05-25T23:44:36.408Z,31.95
2019-05-25T23:47:06.737Z,30.60
2019-05-25T23:49:37.026Z,31.82
2019-05-25T23:52:07.226Z,30.25
2019-05-25T23:54:37.757Z,30.02
2019-05-25T23:57:07.936Z,30.75
2019-05-25T23:59:38.695Z,28.67
